Terminal Aerodrome Forecast
Issued by NWS

Home | Current Version | Previous Version | Text Only | Print | Product List | Glossary On
Versions: 1 2 3 4 5 6 7 8 9 10 11 12 13 14 15 16 17 18
000
FTUS43 KPAH 201100
TAFCGI
TAF
KCGI 201126Z 2012/2112 00000KT P6SM VCSH BKN110
     FM201500 24008KT P6SM SCT040
     FM201900 26008KT P6SM BKN040
     FM210100 33003KT P6SM SKC=

USA.gov is the U.S. government's official web portal to all federal, state and local government web resources and services.